createdAt,value
2023-05-07T00:00:06.669Z,10
2023-05-07T00:01:13.752Z,11
2023-05-07T00:02:21.224Z,11
2023-05-07T00:03:28.307Z,9
2023-05-07T00:04:34.826Z,10
2023-05-07T00:05:41.648Z,10
2023-05-07T00:06:49.324Z,11
2023-05-07T00:07:57.392Z,10
2023-05-07T00:09:02.902Z,9
2023-05-07T00:10:10.058Z,10
2023-05-07T00:11:16.545Z,10
2023-05-07T00:12:23.315Z,10
2023-05-07T00:13:30.201Z,10
2023-05-07T00:14:37.221Z,11
2023-05-07T00:15:45.330Z,10
2023-05-07T00:16:52.434Z,9
2023-05-07T00:17:59.395Z,10
2023-05-07T00:19:07.293Z,11
2023-05-07T00:20:15.350Z,11
2023-05-07T00:21:22.489Z,11
2023-05-07T00:22:29.492Z,10
2023-05-07T00:23:36.476Z,11
2023-05-07T00:24:43.467Z,10
2023-05-07T00:25:50.515Z,10
2023-05-07T00:26:57.927Z,11
2023-05-07T00:28:04.962Z,10
2023-05-07T00:29:11.833Z,10
2023-05-07T00:30:23.796Z,11
2023-05-07T00:31:30.666Z,10
2023-05-07T00:32:37.375Z,11
2023-05-07T00:33:44.162Z,10
2023-05-07T00:34:54.693Z,11
2023-05-07T00:36:01.561Z,10
2023-05-07T00:37:08.766Z,10
2023-05-07T00:38:15.862Z,11
2023-05-07T00:39:22.791Z,10
2023-05-07T00:40:29.775Z,10
2023-05-07T00:41:36.755Z,11
2023-05-07T00:42:43.823Z,11
2023-05-07T00:43:50.765Z,10
2023-05-07T00:44:57.860Z,10
2023-05-07T00:46:05.687Z,10
2023-05-07T00:47:12.641Z,9
2023-05-07T00:48:19.761Z,10
2023-05-07T00:49:26.820Z,10
2023-05-07T00:50:39.144Z,10
2023-05-07T00:51:46.028Z,9
2023-05-07T00:52:53.051Z,10
2023-05-07T00:54:02.581Z,10
2023-05-07T00:55:09.629Z,10
2023-05-07T00:56:16.620Z,9
2023-05-07T00:57:23.870Z,10
2023-05-07T00:58:30.798Z,9
2023-05-07T00:59:37.798Z,10
2023-05-07T01:00:44.756Z,9
2023-05-07T01:01:51.863Z,11
2023-05-07T01:02:58.865Z,9
2023-05-07T01:04:05.733Z,9
2023-05-07T01:05:12.665Z,10
2023-05-07T01:06:19.692Z,10
2023-05-07T01:07:26.617Z,10
2023-05-07T01:08:33.582Z,10
2023-05-07T01:09:40.655Z,10
2023-05-07T01:10:47.619Z,9
2023-05-07T01:11:54.572Z,10
2023-05-07T01:13:02.705Z,10
2023-05-07T01:14:09.620Z,10
2023-05-07T01:15:16.765Z,10
2023-05-07T01:16:23.708Z,10
2023-05-07T01:17:31.612Z,11
2023-05-07T01:18:38.504Z,10
2023-05-07T01:19:45.615Z,10
2023-05-07T01:20:52.655Z,11
2023-05-07T01:22:02.702Z,10
2023-05-07T01:23:12.407Z,11
2023-05-07T01:24:19.453Z,11
2023-05-07T01:25:26.464Z,11
2023-05-07T01:26:33.406Z,11
2023-05-07T01:27:40.362Z,10
2023-05-07T01:28:47.363Z,9
2023-05-07T01:29:54.274Z,9
2023-05-07T01:31:01.278Z,10
2023-05-07T01:32:08.123Z,10
2023-05-07T01:33:15.941Z,10
2023-05-07T01:34:23.164Z,10
2023-05-07T01:35:30.139Z,11
2023-05-07T01:36:37.088Z,8
2023-05-07T01:37:44.173Z,9
2023-05-07T01:38:51.089Z,8
2023-05-07T01:39:58.081Z,9
2023-05-07T01:41:05.008Z,8
2023-05-07T01:42:11.962Z,8
2023-05-07T01:43:18.954Z,9
2023-05-07T01:44:25.957Z,8
2023-05-07T01:45:34.794Z,9
2023-05-07T01:46:41.702Z,8
2023-05-07T01:47:48.628Z,9
2023-05-07T01:48:55.465Z,8
2023-05-07T01:50:02.495Z,8
2023-05-07T01:51:09.644Z,7
2023-05-07T01:52:17.515Z,8
2023-05-07T01:53:24.529Z,8
2023-05-07T01:54:32.555Z,8
2023-05-07T01:55:39.472Z,7
2023-05-07T01:56:46.440Z,8
2023-05-07T01:57:53.677Z,6
2023-05-07T01:59:01.962Z,7
2023-05-07T02:00:08.825Z,7
2023-05-07T02:01:15.863Z,6
2023-05-07T02:02:22.757Z,6
2023-05-07T02:03:30.077Z,6
2023-05-07T02:04:36.915Z,6
2023-05-07T02:05:46.467Z,6
2023-05-07T02:06:53.421Z,5
2023-05-07T02:08:00.378Z,5
2023-05-07T02:09:07.589Z,6
2023-05-07T02:10:14.493Z,6
2023-05-07T02:11:21.440Z,6
2023-05-07T02:12:28.513Z,5
2023-05-07T02:13:35.357Z,6
2023-05-07T02:14:42.256Z,6
2023-05-07T02:15:49.318Z,5
2023-05-07T02:16:56.326Z,5
2023-05-07T02:18:03.297Z,6
2023-05-07T02:19:10.210Z,5
2023-05-07T02:20:18.104Z,5
2023-05-07T02:21:25.368Z,6
2023-05-07T02:22:32.320Z,5
2023-05-07T02:23:39.228Z,5
2023-05-07T02:24:46.189Z,5
2023-05-07T02:25:54.088Z,5
2023-05-07T02:27:01.267Z,6
2023-05-07T02:28:08.237Z,5
2023-05-07T02:29:17.035Z,5
2023-05-07T02:30:24.025Z,5
2023-05-07T02:31:31.247Z,5
2023-05-07T02:32:40.811Z,6
2023-05-07T02:33:47.744Z,5
2023-05-07T02:34:55.545Z,6
2023-05-07T02:36:02.514Z,6
2023-05-07T02:37:12.753Z,6
2023-05-07T02:38:19.689Z,6
2023-05-07T02:39:26.613Z,5
2023-05-07T02:40:33.610Z,5
2023-05-07T02:41:40.650Z,6
2023-05-07T02:42:48.406Z,5
2023-05-07T02:43:55.385Z,5
2023-05-07T02:45:02.347Z,5
2023-05-07T02:46:09.695Z,5
2023-05-07T02:47:17.528Z,5
2023-05-07T02:48:24.520Z,5
2023-05-07T02:49:31.469Z,5
2023-05-07T02:50:38.487Z,5
2023-05-07T02:51:45.445Z,5
2023-05-07T02:52:52.453Z,5
2023-05-07T02:53:59.499Z,6
2023-05-07T02:55:06.536Z,6
2023-05-07T02:56:13.749Z,6
2023-05-07T02:57:20.488Z,6
2023-05-07T02:58:27.535Z,6
2023-05-07T02:59:34.430Z,6
2023-05-07T03:00:41.386Z,6
2023-05-07T03:01:48.384Z,6
2023-05-07T03:02:55.361Z,6
2023-05-07T03:04:02.367Z,6
2023-05-07T03:05:09.298Z,6
2023-05-07T03:06:16.281Z,6
2023-05-07T03:07:23.248Z,6
2023-05-07T03:08:30.203Z,6
2023-05-07T03:09:37.243Z,6
2023-05-07T03:10:44.485Z,5
2023-05-07T03:11:52.660Z,6
2023-05-07T03:12:59.600Z,6
2023-05-07T03:14:06.460Z,5
2023-05-07T03:15:13.413Z,6
2023-05-07T03:16:20.667Z,5
2023-05-07T03:17:27.770Z,6
2023-05-07T03:18:34.774Z,5
2023-05-07T03:19:41.751Z,6
2023-05-07T03:20:48.754Z,6
2023-05-07T03:21:56.847Z,6
2023-05-07T03:23:03.852Z,6
2023-05-07T03:24:10.789Z,6
2023-05-07T03:25:17.723Z,6
2023-05-07T03:26:24.725Z,6
2023-05-07T03:27:33.609Z,6
2023-05-07T03:28:40.913Z,7
2023-05-07T03:29:47.796Z,7
2023-05-07T03:30:54.775Z,7
2023-05-07T03:32:01.767Z,7
2023-05-07T03:33:08.778Z,7
2023-05-07T03:34:15.758Z,6
2023-05-07T03:35:22.673Z,6
2023-05-07T03:36:29.715Z,7
2023-05-07T03:37:36.977Z,7
2023-05-07T03:38:43.978Z,7
2023-05-07T03:39:50.992Z,7
2023-05-07T03:40:57.911Z,7
2023-05-07T03:42:04.785Z,7
2023-05-07T03:43:12.775Z,7
2023-05-07T03:44:19.601Z,7
2023-05-07T03:45:26.777Z,7
2023-05-07T03:46:33.843Z,7
2023-05-07T03:47:44.116Z,7
2023-05-07T03:48:51.077Z,7
2023-05-07T03:49:58.083Z,7
2023-05-07T03:51:05.073Z,7
2023-05-07T03:52:12.015Z,7
2023-05-07T03:53:18.946Z,7
2023-05-07T03:54:26.036Z,8
2023-05-07T03:55:33.006Z,8
2023-05-07T03:56:39.944Z,7
2023-05-07T03:57:46.968Z,7
2023-05-07T03:58:53.885Z,7
2023-05-07T04:00:00.904Z,8
2023-05-07T04:01:08.145Z,7
2023-05-07T04:02:15.181Z,7
2023-05-07T04:03:22.342Z,7
2023-05-07T04:04:29.261Z,6
2023-05-07T04:05:36.220Z,6
2023-05-07T04:06:43.200Z,6
2023-05-07T04:07:51.184Z,6
2023-05-07T04:08:58.142Z,6
2023-05-07T04:10:05.224Z,6
2023-05-07T04:11:12.546Z,6
2023-05-07T04:12:19.487Z,5
2023-05-07T04:13:26.695Z,5
2023-05-07T04:14:33.703Z,6
2023-05-07T04:15:40.779Z,6
2023-05-07T04:16:47.890Z,5
2023-05-07T04:17:55.785Z,6
2023-05-07T04:19:02.806Z,5
2023-05-07T04:20:10.925Z,6
2023-05-07T04:21:20.557Z,5
2023-05-07T04:22:27.591Z,5
2023-05-07T04:23:34.568Z,5
2023-05-07T04:24:41.689Z,5
2023-05-07T04:25:48.704Z,5
2023-05-07T04:26:55.734Z,5
2023-05-07T04:28:02.927Z,5
2023-05-07T04:29:09.974Z,5
2023-05-07T04:30:17.040Z,5
2023-05-07T04:31:24.053Z,5
2023-05-07T04:32:31.021Z,5
2023-05-07T04:33:38.023Z,5
2023-05-07T04:34:46.050Z,5
2023-05-07T04:35:53.014Z,5
2023-05-07T04:36:59.853Z,5
2023-05-07T04:38:06.797Z,5
2023-05-07T04:39:13.779Z,5
2023-05-07T04:40:20.699Z,5
2023-05-07T04:41:27.614Z,5
2023-05-07T04:42:35.470Z,5
2023-05-07T04:43:42.425Z,5
2023-05-07T04:44:49.332Z,4
2023-05-07T04:45:56.456Z,4
2023-05-07T04:47:03.144Z,5
2023-05-07T04:48:10.121Z,5
2023-05-07T04:49:18.856Z,5
2023-05-07T04:50:25.823Z,4
2023-05-07T04:51:32.908Z,4
2023-05-07T04:52:39.746Z,5
2023-05-07T04:53:46.609Z,5
2023-05-07T04:54:53.567Z,4
2023-05-07T04:56:00.481Z,4
2023-05-07T04:57:07.621Z,4
2023-05-07T04:58:14.570Z,4
2023-05-07T04:59:21.698Z,4
2023-05-07T05:00:28.634Z,4
2023-05-07T05:01:35.687Z,4
2023-05-07T05:02:42.714Z,4
2023-05-07T05:03:49.601Z,4
2023-05-07T05:04:56.454Z,4
2023-05-07T05:06:03.409Z,4
2023-05-07T05:07:10.336Z,3
2023-05-07T05:08:17.284Z,4
2023-05-07T05:09:24.190Z,3
2023-05-07T05:10:31.069Z,3
2023-05-07T05:11:37.991Z,3
2023-05-07T05:12:44.923Z,3
2023-05-07T05:13:52.088Z,3
2023-05-07T05:14:58.998Z,2
2023-05-07T05:16:05.963Z,2
2023-05-07T05:17:12.867Z,3
2023-05-07T05:18:20.010Z,3
2023-05-07T05:19:26.895Z,2
2023-05-07T05:20:33.812Z,3
2023-05-07T05:21:40.699Z,3
2023-05-07T05:22:47.594Z,3
2023-05-07T05:23:54.649Z,3
2023-05-07T05:25:01.736Z,3
2023-05-07T05:26:08.876Z,4
2023-05-07T05:27:15.788Z,3
2023-05-07T05:28:22.748Z,3
2023-05-07T05:29:29.672Z,3
2023-05-07T05:30:36.578Z,3
2023-05-07T05:31:43.608Z,3
2023-05-07T05:32:50.721Z,3
2023-05-07T05:33:57.426Z,3
2023-05-07T05:35:04.347Z,3
2023-05-07T05:36:11.528Z,3
2023-05-07T05:37:18.386Z,3
2023-05-07T05:38:25.290Z,3
2023-05-07T05:39:32.323Z,2
2023-05-07T05:40:40.287Z,3
2023-05-07T05:41:47.150Z,2
2023-05-07T05:42:54.153Z,3
2023-05-07T05:44:01.087Z,2
2023-05-07T05:45:08.116Z,3
2023-05-07T05:46:15.172Z,3
2023-05-07T05:47:22.246Z,3
2023-05-07T05:48:29.186Z,3
2023-05-07T05:49:36.219Z,3
2023-05-07T05:50:43.259Z,3
2023-05-07T05:51:50.216Z,3
2023-05-07T05:52:57.140Z,3
2023-05-07T05:54:04.158Z,3
2023-05-07T05:55:11.025Z,3
2023-05-07T05:56:18.018Z,3
2023-05-07T05:57:26.613Z,3
2023-05-07T05:58:32.723Z,3
2023-05-07T05:59:39.673Z,3
2023-05-07T06:00:46.592Z,3
2023-05-07T06:01:53.404Z,3
2023-05-07T06:03:02.603Z,4
2023-05-07T06:04:10.714Z,4
2023-05-07T06:05:17.600Z,4
2023-05-07T06:06:24.620Z,4
2023-05-07T06:07:31.528Z,4
2023-05-07T06:08:38.405Z,4
2023-05-07T06:09:45.483Z,4
2023-05-07T06:10:52.360Z,4
2023-05-07T06:12:00.662Z,5
2023-05-07T06:13:06.215Z,5
2023-05-07T06:14:13.180Z,5
2023-05-07T06:15:20.350Z,4
2023-05-07T06:16:28.439Z,5
2023-05-07T06:17:40.172Z,4
2023-05-07T06:18:49.743Z,5
2023-05-07T06:19:57.594Z,4
2023-05-07T06:21:04.543Z,5
2023-05-07T06:22:11.423Z,4
2023-05-07T06:23:18.347Z,5
2023-05-07T06:24:25.301Z,5
2023-05-07T06:25:32.205Z,4
2023-05-07T06:26:39.304Z,4
2023-05-07T06:27:46.331Z,4
2023-05-07T06:28:53.186Z,4
2023-05-07T06:30:00.318Z,4
2023-05-07T06:31:07.442Z,4
2023-05-07T06:32:19.494Z,5
2023-05-07T06:33:26.379Z,4
2023-05-07T06:34:34.322Z,4
2023-05-07T06:35:41.332Z,4
2023-05-07T06:36:48.153Z,4
2023-05-07T06:37:55.123Z,5
2023-05-07T06:39:02.053Z,5
2023-05-07T06:40:09.344Z,5
2023-05-07T06:41:16.105Z,4
2023-05-07T06:42:23.085Z,5
2023-05-07T06:43:29.992Z,5
2023-05-07T06:44:36.891Z,5
2023-05-07T06:45:43.903Z,5
2023-05-07T06:46:50.796Z,5
2023-05-07T06:47:57.770Z,5
2023-05-07T06:49:04.630Z,5
2023-05-07T06:50:11.857Z,4
2023-05-07T06:51:18.576Z,5
2023-05-07T06:52:25.409Z,4
2023-05-07T06:53:32.567Z,5
2023-05-07T06:54:39.703Z,5
2023-05-07T06:55:48.046Z,4
2023-05-07T06:56:54.938Z,5
2023-05-07T06:58:01.884Z,5
2023-05-07T06:59:08.806Z,4
2023-05-07T07:00:16.002Z,4
2023-05-07T07:01:23.277Z,4
2023-05-07T07:02:30.146Z,5
2023-05-07T07:03:36.986Z,5
2023-05-07T07:04:43.860Z,4
2023-05-07T07:05:51.018Z,5
2023-05-07T07:06:58.009Z,4
2023-05-07T07:08:04.954Z,4
2023-05-07T07:09:11.958Z,5
2023-05-07T07:10:19.792Z,5
2023-05-07T07:11:26.793Z,4
2023-05-07T07:12:33.860Z,4
2023-05-07T07:13:40.870Z,4
2023-05-07T07:14:47.816Z,4
2023-05-07T07:15:54.836Z,4
2023-05-07T07:17:01.823Z,4
2023-05-07T07:18:08.834Z,4
2023-05-07T07:19:15.785Z,4
2023-05-07T07:20:22.785Z,4
2023-05-07T07:21:29.797Z,4
2023-05-07T07:22:36.786Z,5
2023-05-07T07:23:43.812Z,5
2023-05-07T07:24:50.717Z,5
2023-05-07T07:25:57.666Z,5
2023-05-07T07:27:04.631Z,5
2023-05-07T07:28:11.713Z,6
2023-05-07T07:29:18.706Z,6
2023-05-07T07:30:25.742Z,6
2023-05-07T07:31:32.702Z,6
2023-05-07T07:32:40.617Z,5
2023-05-07T07:33:48.397Z,5
2023-05-07T07:34:55.467Z,5
2023-05-07T07:36:02.502Z,5
2023-05-07T07:37:09.584Z,5
2023-05-07T07:38:16.669Z,5
2023-05-07T07:39:23.552Z,5
2023-05-07T07:40:30.632Z,5
2023-05-07T07:41:40.556Z,6
2023-05-07T07:42:47.517Z,4
2023-05-07T07:43:54.432Z,5
2023-05-07T07:45:01.371Z,5
2023-05-07T07:46:08.659Z,5
2023-05-07T07:47:15.849Z,5
2023-05-07T07:48:22.766Z,5
2023-05-07T07:49:29.704Z,5
2023-05-07T07:50:44.174Z,5
2023-05-07T07:51:44.620Z,4
2023-05-07T07:52:51.733Z,5
2023-05-07T07:53:58.682Z,4
2023-05-07T07:55:05.588Z,4
2023-05-07T07:56:12.753Z,4
2023-05-07T07:57:19.716Z,4
2023-05-07T07:58:26.695Z,5
2023-05-07T07:59:33.678Z,5
2023-05-07T08:00:40.526Z,5
2023-05-07T08:01:47.488Z,5
2023-05-07T08:02:54.717Z,4
2023-05-07T08:04:01.613Z,4
2023-05-07T08:05:08.467Z,4
2023-05-07T08:06:15.432Z,4
2023-05-07T08:07:22.439Z,4
2023-05-07T08:08:29.412Z,4
2023-05-07T08:09:36.442Z,4
2023-05-07T08:10:43.239Z,3
2023-05-07T08:11:50.188Z,4
2023-05-07T08:12:57.150Z,4
2023-05-07T08:14:04.157Z,5
2023-05-07T08:15:11.167Z,4
2023-05-07T08:16:18.134Z,4
2023-05-07T08:17:25.070Z,4
2023-05-07T08:18:31.981Z,3
2023-05-07T08:19:38.848Z,4
2023-05-07T08:20:45.901Z,4
2023-05-07T08:21:52.846Z,4
2023-05-07T08:22:59.735Z,3
2023-05-07T08:24:06.628Z,3
2023-05-07T08:25:13.593Z,3
2023-05-07T08:26:20.590Z,3
2023-05-07T08:27:27.530Z,3
2023-05-07T08:28:34.436Z,3
2023-05-07T08:29:41.397Z,3
2023-05-07T08:30:48.385Z,4
2023-05-07T08:31:55.422Z,4
2023-05-07T08:33:02.343Z,4
2023-05-07T08:34:10.138Z,4
2023-05-07T08:35:16.261Z,4
2023-05-07T08:36:23.357Z,4
2023-05-07T08:37:30.276Z,4
2023-05-07T08:38:37.269Z,4
2023-05-07T08:39:46.999Z,4
2023-05-07T08:40:54.035Z,4
2023-05-07T08:42:00.948Z,3
2023-05-07T08:43:07.972Z,4
2023-05-07T08:44:18.064Z,4
2023-05-07T08:45:25.166Z,4
2023-05-07T08:46:32.221Z,3
2023-05-07T08:47:39.104Z,4
2023-05-07T08:48:48.996Z,4
2023-05-07T08:49:55.992Z,3
2023-05-07T08:51:03.088Z,4
2023-05-07T08:52:10.342Z,4
2023-05-07T08:53:17.019Z,4
2023-05-07T08:54:23.905Z,4
2023-05-07T08:55:30.839Z,4
2023-05-07T08:56:37.951Z,4
2023-05-07T08:57:44.782Z,4
2023-05-07T08:58:51.650Z,4
2023-05-07T08:59:58.537Z,3
2023-05-07T09:01:05.419Z,3
2023-05-07T09:02:17.608Z,3
2023-05-07T09:03:24.567Z,4
2023-05-07T09:04:31.423Z,3
2023-05-07T09:05:38.328Z,3
2023-05-07T09:06:46.361Z,4
2023-05-07T09:07:54.456Z,4
2023-05-07T09:09:00.196Z,4
2023-05-07T09:10:07.185Z,3
2023-05-07T09:11:14.315Z,5
2023-05-07T09:12:21.414Z,5
2023-05-07T09:13:28.244Z,5
2023-05-07T09:14:35.180Z,4
2023-05-07T09:15:42.319Z,4
2023-05-07T09:16:49.370Z,5
2023-05-07T09:17:56.280Z,4
2023-05-07T09:19:03.173Z,3
2023-05-07T09:20:11.184Z,3
2023-05-07T09:21:17.336Z,3
2023-05-07T09:22:24.283Z,4
2023-05-07T09:23:31.436Z,3
2023-05-07T09:24:38.376Z,4
2023-05-07T09:25:45.357Z,4
2023-05-07T09:26:52.633Z,3
2023-05-07T09:27:59.713Z,3
2023-05-07T09:29:06.652Z,4
2023-05-07T09:30:13.618Z,3
2023-05-07T09:31:21.507Z,3
2023-05-07T09:32:30.471Z,3
2023-05-07T09:33:37.453Z,3
2023-05-07T09:34:44.327Z,3
2023-05-07T09:35:51.246Z,4
2023-05-07T09:36:58.359Z,4
2023-05-07T09:38:08.348Z,3
2023-05-07T09:39:15.344Z,3
2023-05-07T09:40:22.289Z,4
2023-05-07T09:41:29.260Z,3
2023-05-07T09:42:36.222Z,3
2023-05-07T09:43:43.206Z,3
2023-05-07T09:44:50.074Z,4
2023-05-07T09:45:57.082Z,3
2023-05-07T09:47:04.022Z,3
2023-05-07T09:48:10.953Z,3
2023-05-07T09:49:19.762Z,3
2023-05-07T09:50:24.789Z,3
2023-05-07T09:51:31.767Z,3
2023-05-07T09:52:45.311Z,3
2023-05-07T09:53:52.252Z,3
2023-05-07T09:54:59.238Z,3
2023-05-07T09:56:06.127Z,3
2023-05-07T09:57:13.152Z,3
2023-05-07T09:58:20.114Z,2
2023-05-07T09:59:29.810Z,3
2023-05-07T10:00:34.809Z,3
2023-05-07T10:01:41.832Z,3
2023-05-07T10:02:48.732Z,4
2023-05-07T10:03:57.991Z,3
2023-05-07T10:05:04.650Z,4
2023-05-07T10:06:12.585Z,3
2023-05-07T10:07:19.665Z,3
2023-05-07T10:08:26.597Z,4
2023-05-07T10:09:33.549Z,4
2023-05-07T10:10:40.441Z,4
2023-05-07T10:11:47.383Z,4
2023-05-07T10:12:54.399Z,4
2023-05-07T10:14:04.772Z,4
2023-05-07T10:15:13.035Z,4
2023-05-07T10:16:19.442Z,4
2023-05-07T10:17:26.432Z,3
2023-05-07T10:18:33.354Z,3
2023-05-07T10:19:40.382Z,3
2023-05-07T10:20:47.318Z,3
2023-05-07T10:21:54.205Z,4
2023-05-07T10:23:01.139Z,3
2023-05-07T10:24:08.077Z,4
2023-05-07T10:25:15.142Z,3
2023-05-07T10:26:23.024Z,4
2023-05-07T10:27:30.842Z,4
2023-05-07T10:28:37.787Z,4
2023-05-07T10:29:44.737Z,4
2023-05-07T10:30:57.153Z,5
2023-05-07T10:32:08.793Z,4
2023-05-07T10:33:26.942Z,4
2023-05-07T10:34:33.939Z,4
2023-05-07T10:35:40.897Z,3
2023-05-07T10:36:47.908Z,4
2023-05-07T10:37:54.871Z,4
2023-05-07T10:39:02.585Z,4
2023-05-07T10:40:09.656Z,4
2023-05-07T10:41:17.020Z,4
2023-05-07T10:42:24.759Z,4
2023-05-07T10:43:31.664Z,3
2023-05-07T10:44:44.685Z,3
2023-05-07T10:45:51.625Z,4
2023-05-07T10:47:09.105Z,4
2023-05-07T10:49:26.020Z,4
2023-05-07T10:50:33.200Z,4
2023-05-07T10:51:42.818Z,4
2023-05-07T10:52:49.735Z,4
2023-05-07T10:54:08.130Z,3
2023-05-07T10:55:15.855Z,3
2023-05-07T10:56:23.032Z,3
2023-05-07T10:57:30.029Z,4
2023-05-07T10:58:36.965Z,3
2023-05-07T10:59:43.907Z,3
2023-05-07T11:00:50.952Z,3
2023-05-07T11:01:58.108Z,3
2023-05-07T11:03:05.174Z,3
2023-05-07T11:04:12.003Z,3
2023-05-07T11:05:19.147Z,3
2023-05-07T11:06:26.171Z,4
2023-05-07T11:07:33.130Z,3
2023-05-07T11:08:40.177Z,3
2023-05-07T11:09:57.617Z,3
2023-05-07T11:11:05.426Z,3
2023-05-07T11:12:12.406Z,3
2023-05-07T11:13:19.443Z,3
2023-05-07T11:14:36.652Z,3
2023-05-07T11:15:46.366Z,3
2023-05-07T11:16:53.299Z,3
2023-05-07T11:18:00.322Z,3
2023-05-07T11:19:07.493Z,4
2023-05-07T11:20:14.442Z,4
2023-05-07T11:21:21.393Z,3
2023-05-07T11:22:38.603Z,4
2023-05-07T11:23:46.476Z,4
2023-05-07T11:24:53.610Z,3
2023-05-07T11:26:00.597Z,3
2023-05-07T11:27:12.912Z,4
2023-05-07T11:28:19.916Z,3
2023-05-07T11:29:26.920Z,3
2023-05-07T11:30:33.876Z,3
2023-05-07T11:31:40.925Z,3
2023-05-07T11:32:47.980Z,3
2023-05-07T11:33:54.932Z,3
2023-05-07T11:35:01.870Z,3
2023-05-07T11:36:08.973Z,3
2023-05-07T11:37:16.062Z,3
2023-05-07T11:38:23.016Z,3
2023-05-07T11:39:29.970Z,3
2023-05-07T11:40:40.210Z,3
2023-05-07T11:41:53.496Z,4
2023-05-07T11:42:59.406Z,3
2023-05-07T11:44:06.350Z,3
2023-05-07T11:45:13.425Z,4
2023-05-07T11:46:20.914Z,3
2023-05-07T11:47:27.916Z,4
2023-05-07T11:48:34.893Z,4
2023-05-07T11:49:46.458Z,4
2023-05-07T11:50:57.416Z,4
2023-05-07T11:52:06.635Z,5
2023-05-07T11:53:13.894Z,5
2023-05-07T11:54:19.202Z,4
2023-05-07T11:55:27.058Z,4
2023-05-07T11:56:34.092Z,5
2023-05-07T11:57:41.011Z,4
2023-05-07T11:58:47.927Z,5
2023-05-07T11:59:54.869Z,4
2023-05-07T12:01:01.841Z,4
2023-05-07T12:02:09.855Z,4
2023-05-07T12:03:19.770Z,4
2023-05-07T12:04:27.642Z,4
2023-05-07T12:05:34.551Z,4
2023-05-07T12:06:41.497Z,4
2023-05-07T12:07:48.532Z,4
2023-05-07T12:08:55.390Z,4
2023-05-07T12:10:03.224Z,4
2023-05-07T12:11:10.269Z,4
2023-05-07T12:12:19.796Z,4
2023-05-07T12:13:28.801Z,4
2023-05-07T12:14:36.584Z,3
2023-05-07T12:15:44.477Z,4
2023-05-07T12:16:51.453Z,4
2023-05-07T12:17:58.528Z,3
2023-05-07T12:19:09.001Z,4
2023-05-07T12:20:18.952Z,4
2023-05-07T12:21:25.944Z,3
2023-05-07T12:22:33.001Z,3
2023-05-07T12:23:41.121Z,3
2023-05-07T12:24:48.027Z,3
2023-05-07T12:25:54.975Z,3
2023-05-07T12:27:02.888Z,3
2023-05-07T12:28:09.829Z,4
2023-05-07T12:29:16.792Z,4
2023-05-07T12:30:30.660Z,4
2023-05-07T12:31:40.717Z,4
2023-05-07T12:32:47.670Z,4
2023-05-07T12:33:57.255Z,3
2023-05-07T12:35:04.224Z,4
2023-05-07T12:36:11.379Z,4
2023-05-07T12:37:18.446Z,4
2023-05-07T12:38:29.396Z,4
2023-05-07T12:39:39.988Z,4
2023-05-07T12:40:55.527Z,5
2023-05-07T12:42:02.436Z,4
2023-05-07T12:43:09.433Z,4
2023-05-07T12:44:19.308Z,4
2023-05-07T12:45:30.289Z,4
2023-05-07T12:46:43.329Z,4
2023-05-07T12:47:50.338Z,4
2023-05-07T12:48:59.461Z,4
2023-05-07T12:50:06.363Z,4
2023-05-07T12:51:13.465Z,4
2023-05-07T12:52:20.410Z,4
2023-05-07T12:53:28.366Z,3
2023-05-07T12:54:35.453Z,3
2023-05-07T12:55:42.336Z,4
2023-05-07T12:56:49.254Z,5
2023-05-07T12:57:56.219Z,5
2023-05-07T12:59:03.315Z,5
2023-05-07T13:00:10.258Z,5
2023-05-07T13:01:17.521Z,5
2023-05-07T13:02:24.566Z,4
2023-05-07T13:03:36.795Z,4
2023-05-07T13:04:44.596Z,5
2023-05-07T13:05:51.488Z,5
2023-05-07T13:07:01.257Z,5
2023-05-07T13:08:08.212Z,5
2023-05-07T13:09:15.335Z,5
2023-05-07T13:10:22.502Z,4
2023-05-07T13:11:29.648Z,4
2023-05-07T13:12:36.744Z,5
2023-05-07T13:13:43.627Z,5
2023-05-07T13:14:50.582Z,5
2023-05-07T13:15:57.588Z,4
2023-05-07T13:17:04.698Z,4
2023-05-07T13:18:11.714Z,5
2023-05-07T13:19:18.755Z,5
2023-05-07T13:20:25.627Z,5
2023-05-07T13:21:32.598Z,5
2023-05-07T13:22:39.554Z,5
2023-05-07T13:23:47.126Z,5
2023-05-07T13:24:54.161Z,5
2023-05-07T13:26:04.206Z,5
2023-05-07T13:27:08.200Z,5
2023-05-07T13:28:15.282Z,5
2023-05-07T13:29:22.172Z,4
2023-05-07T13:30:29.209Z,5
2023-05-07T13:31:36.219Z,5
2023-05-07T13:32:43.253Z,5
2023-05-07T13:33:50.241Z,5
2023-05-07T13:34:57.258Z,5
2023-05-07T13:36:04.378Z,5
2023-05-07T13:37:11.942Z,5
2023-05-07T13:38:18.576Z,5
2023-05-07T13:39:25.654Z,5
2023-05-07T13:40:32.610Z,5
2023-05-07T13:41:39.766Z,5
2023-05-07T13:42:46.807Z,6
2023-05-07T13:43:53.768Z,5
2023-05-07T13:45:00.738Z,5
2023-05-07T13:46:07.947Z,5
2023-05-07T13:47:14.932Z,5
2023-05-07T13:48:21.909Z,7
2023-05-07T13:49:28.877Z,6
2023-05-07T13:50:35.961Z,7
2023-05-07T13:51:42.916Z,9
2023-05-07T13:52:49.745Z,9
2023-05-07T13:53:56.697Z,7
2023-05-07T13:55:03.713Z,6
2023-05-07T13:56:10.905Z,8
2023-05-07T13:57:18.001Z,7
2023-05-07T13:58:24.878Z,7
2023-05-07T13:59:31.897Z,7
2023-05-07T14:00:38.988Z,7
2023-05-07T14:01:45.910Z,6
2023-05-07T14:02:53.098Z,6
2023-05-07T14:04:00.884Z,6
2023-05-07T14:05:07.708Z,7
2023-05-07T14:06:14.861Z,6
2023-05-07T14:07:21.842Z,6
2023-05-07T14:08:31.598Z,7
2023-05-07T14:09:35.782Z,6
2023-05-07T14:10:42.699Z,6
2023-05-07T14:11:49.883Z,6
2023-05-07T14:12:56.866Z,6
2023-05-07T14:14:03.777Z,6
2023-05-07T14:15:10.651Z,6
2023-05-07T14:16:17.707Z,6
2023-05-07T14:17:24.642Z,6
2023-05-07T14:18:31.526Z,6
2023-05-07T14:19:38.504Z,6
2023-05-07T14:20:45.451Z,7
2023-05-07T14:21:52.439Z,7
2023-05-07T14:23:00.316Z,7
2023-05-07T14:24:07.235Z,6
2023-05-07T14:25:14.484Z,6
2023-05-07T14:26:21.204Z,6
2023-05-07T14:27:28.230Z,6
2023-05-07T14:28:35.220Z,6
2023-05-07T14:29:42.202Z,5
2023-05-07T14:30:49.141Z,3
2023-05-07T14:31:56.060Z,4
2023-05-07T14:33:03.139Z,4
2023-05-07T14:34:13.256Z,4
2023-05-07T14:35:31.538Z,3
2023-05-07T14:36:44.072Z,3
2023-05-07T14:37:51.103Z,3
2023-05-07T14:38:58.145Z,4
2023-05-07T14:40:05.077Z,4
2023-05-07T14:41:12.461Z,3
2023-05-07T14:42:20.439Z,4
2023-05-07T14:43:27.406Z,3
2023-05-07T14:44:34.383Z,4
2023-05-07T14:45:41.319Z,3
2023-05-07T14:46:48.304Z,4
2023-05-07T14:47:55.364Z,4
2023-05-07T14:49:03.138Z,3
2023-05-07T14:50:10.084Z,4
2023-05-07T14:51:18.906Z,4
2023-05-07T14:52:25.817Z,4
2023-05-07T14:53:32.854Z,4
2023-05-07T14:54:39.866Z,4
2023-05-07T14:55:46.773Z,6
2023-05-07T14:56:53.818Z,5
2023-05-07T14:58:00.761Z,4
2023-05-07T14:59:07.683Z,4
2023-05-07T15:00:14.722Z,5
2023-05-07T15:01:21.871Z,5
2023-05-07T15:02:28.879Z,5
2023-05-07T15:03:35.803Z,5
2023-05-07T15:04:42.836Z,4
2023-05-07T15:05:53.620Z,4
2023-05-07T15:07:00.702Z,5
2023-05-07T15:08:07.721Z,4
2023-05-07T15:09:14.725Z,5
2023-05-07T15:10:21.651Z,4
2023-05-07T15:11:28.594Z,5
2023-05-07T15:12:35.644Z,4
2023-05-07T15:13:42.682Z,4
2023-05-07T15:14:49.608Z,4
2023-05-07T15:15:57.481Z,5
2023-05-07T15:17:04.409Z,4
2023-05-07T15:18:11.441Z,4
2023-05-07T15:19:18.343Z,4
2023-05-07T15:20:25.305Z,5
2023-05-07T15:21:32.233Z,4
2023-05-07T15:22:39.342Z,4
2023-05-07T15:23:46.291Z,5
2023-05-07T15:24:53.356Z,5
2023-05-07T15:26:00.290Z,4
2023-05-07T15:27:07.202Z,4
2023-05-07T15:28:14.221Z,4
2023-05-07T15:29:21.121Z,5
2023-05-07T15:30:28.081Z,5
2023-05-07T15:31:35.139Z,5
2023-05-07T15:32:42.164Z,5
2023-05-07T15:33:49.221Z,5
2023-05-07T15:34:56.157Z,5
2023-05-07T15:36:03.057Z,5
2023-05-07T15:37:10.146Z,5
2023-05-07T15:38:17.020Z,5
2023-05-07T15:39:25.130Z,5
2023-05-07T15:40:31.132Z,6
2023-05-07T15:41:38.146Z,5
2023-05-07T15:42:45.085Z,5
2023-05-07T15:43:52.052Z,5
2023-05-07T15:44:59.126Z,5
2023-05-07T15:46:06.083Z,5
2023-05-07T15:47:13.153Z,5
2023-05-07T15:48:20.064Z,6
2023-05-07T15:49:26.996Z,5
2023-05-07T15:50:34.101Z,5
2023-05-07T15:51:41.333Z,6
2023-05-07T15:52:49.077Z,6
2023-05-07T15:53:56.018Z,6
2023-05-07T15:55:03.089Z,6
2023-05-07T15:56:10.433Z,6
2023-05-07T15:57:17.466Z,6
2023-05-07T15:58:25.398Z,7
2023-05-07T15:59:32.375Z,6
2023-05-07T16:00:39.317Z,6
2023-05-07T16:01:46.776Z,7
2023-05-07T16:02:53.843Z,6
2023-05-07T16:04:00.773Z,6
2023-05-07T16:05:08.695Z,6
2023-05-07T16:06:15.607Z,6
2023-05-07T16:07:22.584Z,5
2023-05-07T16:08:29.721Z,6
2023-05-07T16:09:36.755Z,5
2023-05-07T16:10:43.784Z,5
2023-05-07T16:11:50.746Z,5
2023-05-07T16:12:58.677Z,5
2023-05-07T16:14:05.653Z,5
2023-05-07T16:15:12.858Z,5
2023-05-07T16:16:20.633Z,5
2023-05-07T16:17:27.616Z,5
2023-05-07T16:18:34.596Z,6
2023-05-07T16:19:41.679Z,6
2023-05-07T16:20:48.702Z,6
2023-05-07T16:21:55.671Z,5
2023-05-07T16:23:02.674Z,5
2023-05-07T16:24:09.715Z,6
2023-05-07T16:25:16.901Z,5
2023-05-07T16:26:23.828Z,5
2023-05-07T16:27:30.816Z,6
2023-05-07T16:28:37.789Z,6
2023-05-07T16:29:44.795Z,6
2023-05-07T16:30:51.831Z,7
2023-05-07T16:31:58.850Z,6
2023-05-07T16:33:06.097Z,6
2023-05-07T16:34:13.078Z,6